createdAt,value
2019-02-02T00:01:00.072Z,25.80
2019-02-02T00:03:28.527Z,24.93
2019-02-02T00:05:57.243Z,25.90
2019-02-02T00:08:26.092Z,26.93
2019-02-02T00:10:54.562Z,26.10
2019-02-02T00:13:29.729Z,26.97
2019-02-02T00:15:58.529Z,27.73
2019-02-02T00:18:28.155Z,26.37
2019-02-02T00:20:56.583Z,27.27
2019-02-02T00:23:25.048Z,28.50
2019-02-02T00:25:53.399Z,28.60
2019-02-02T00:28:22.045Z,30.27
2019-02-02T00:30:50.469Z,28.23
2019-02-02T00:33:19.832Z,31.20
2019-02-02T00:35:48.281Z,30.73
2019-02-02T00:38:16.627Z,31.63
2019-02-02T00:40:45.130Z,32.13
2019-02-02T00:43:13.583Z,38.10
2019-02-02T00:45:42.011Z,32.43
2019-02-02T00:48:10.436Z,30.73
2019-02-02T00:50:38.868Z,30.87
2019-02-02T00:53:07.296Z,31.90
2019-02-02T00:55:35.721Z,31.07
2019-02-02T00:58:04.460Z,33.97
2019-02-02T01:00:32.907Z,32.37
2019-02-02T01:03:01.373Z,31.47
2019-02-02T01:05:29.943Z,30.40
2019-02-02T01:07:58.365Z,31.80
2019-02-02T01:10:28.244Z,32.37
2019-02-02T01:12:56.671Z,31.80
2019-02-02T01:15:25.619Z,33.30
2019-02-02T01:17:54.057Z,33.77
2019-02-02T01:20:22.555Z,32.40
2019-02-02T01:22:51.016Z,34.87
2019-02-02T01:25:19.447Z,35.37
2019-02-02T01:27:47.883Z,33.43
2019-02-02T01:30:16.579Z,32.40
2019-02-02T01:32:45.403Z,31.13
2019-02-02T01:35:14.379Z,31.70
2019-02-02T01:37:43.134Z,32.50
2019-02-02T01:40:13.119Z,33.60
2019-02-02T01:42:41.532Z,33.03
2019-02-02T01:45:11.367Z,30.40
2019-02-02T01:47:39.744Z,33.07
2019-02-02T01:50:09.580Z,32.30
2019-02-02T01:52:38.013Z,32.20
2019-02-02T01:55:07.135Z,33.87
2019-02-02T01:57:35.496Z,32.93
2019-02-02T02:00:04.315Z,32.20
2019-02-02T02:02:47.104Z,31.63
2019-02-02T02:05:15.608Z,33.13
2019-02-02T02:07:44.044Z,31.17
2019-02-02T02:10:12.931Z,33.00
2019-02-02T02:12:41.401Z,33.23
2019-02-02T02:15:10.562Z,32.20
2019-02-02T02:17:38.960Z,33.73
2019-02-02T02:20:08.073Z,30.33
2019-02-02T02:22:41.061Z,32.73
2019-02-02T02:25:12.555Z,33.13
2019-02-02T02:27:40.995Z,31.47
2019-02-02T02:30:10.835Z,32.23
2019-02-02T02:32:39.268Z,31.17
2019-02-02T02:35:07.736Z,31.37
2019-02-02T02:37:36.152Z,31.70
2019-02-02T02:40:04.960Z,30.83
2019-02-02T02:42:35.471Z,31.10
2019-02-02T02:45:04.506Z,31.00
2019-02-02T02:47:32.882Z,30.10
2019-02-02T02:50:01.488Z,32.20
2019-02-02T02:52:29.923Z,30.60
2019-02-02T02:54:58.393Z,31.07
2019-02-02T02:57:26.871Z,32.93
2019-02-02T02:59:55.220Z,31.67
2019-02-02T03:02:23.639Z,33.03
2019-02-02T03:04:51.987Z,32.23
2019-02-02T03:07:20.420Z,32.83
2019-02-02T03:09:48.771Z,32.83
2019-02-02T03:12:17.224Z,32.80
2019-02-02T03:14:45.663Z,31.57
2019-02-02T03:17:14.077Z,31.67
2019-02-02T03:19:42.451Z,33.17
2019-02-02T03:22:10.872Z,30.27
2019-02-02T03:24:39.207Z,33.80
2019-02-02T03:27:07.639Z,31.90
2019-02-02T03:29:35.991Z,32.70
2019-02-02T03:32:04.428Z,30.93
2019-02-02T03:34:32.863Z,32.87
2019-02-02T03:37:01.212Z,33.63
2019-02-02T03:39:29.581Z,32.70
2019-02-02T03:41:58.015Z,32.27
2019-02-02T03:44:26.760Z,33.83
2019-02-02T03:46:55.111Z,32.73
2019-02-02T03:49:23.560Z,35.47
2019-02-02T03:51:51.974Z,33.50
2019-02-02T03:54:20.411Z,33.27
2019-02-02T03:56:48.846Z,34.00
2019-02-02T03:59:17.188Z,36.57
2019-02-02T04:01:45.540Z,34.70
2019-02-02T04:04:13.903Z,35.17
2019-02-02T04:06:42.332Z,34.13
2019-02-02T04:09:10.774Z,34.03
2019-02-02T04:11:39.263Z,32.60
2019-02-02T04:14:07.763Z,34.37
2019-02-02T04:16:36.207Z,35.43
2019-02-02T04:19:06.695Z,34.57
2019-02-02T04:21:35.143Z,34.00
2019-02-02T04:24:03.700Z,34.77
2019-02-02T04:26:32.131Z,33.27
2019-02-02T04:29:00.570Z,34.23
2019-02-02T04:31:29.000Z,34.10
2019-02-02T04:33:57.423Z,33.80
2019-02-02T04:36:25.787Z,32.33
2019-02-02T04:38:54.218Z,35.47
2019-02-02T04:41:22.651Z,35.87
2019-02-02T04:43:51.112Z,35.47
2019-02-02T04:46:19.527Z,34.60
2019-02-02T04:48:47.954Z,34.83
2019-02-02T04:51:16.408Z,34.37
2019-02-02T04:53:44.833Z,35.23
2019-02-02T04:56:13.180Z,38.40
2019-02-02T04:58:41.541Z,36.27
2019-02-02T05:01:09.963Z,35.57
2019-02-02T05:03:38.386Z,36.80
2019-02-02T05:06:26.119Z,37.67
2019-02-02T05:09:13.697Z,36.73
2019-02-02T05:12:03.684Z,37.20
2019-02-02T05:14:51.281Z,39.80
2019-02-02T05:17:38.907Z,40.30
2019-02-02T05:20:26.481Z,40.17
2019-02-02T05:23:14.076Z,39.50
2019-02-02T05:26:01.648Z,40.60
2019-02-02T05:28:49.224Z,38.40
2019-02-02T05:31:36.856Z,41.43
2019-02-02T05:34:24.516Z,41.70
2019-02-02T05:37:12.071Z,42.13
2019-02-02T05:39:59.656Z,42.20
2019-02-02T06:18:31.176Z,48.57
2019-02-02T06:20:59.527Z,50.43
2019-02-02T06:23:27.882Z,45.73
2019-02-02T06:25:56.322Z,49.07
2019-02-02T06:28:24.679Z,50.47
2019-02-02T06:30:53.127Z,47.77
2019-02-02T06:33:21.576Z,48.33
2019-02-02T06:35:49.999Z,46.60
2019-02-02T06:38:18.503Z,48.63
2019-02-02T06:40:46.895Z,49.53
2019-02-02T06:43:15.555Z,47.43
2019-02-02T06:45:44.456Z,50.43
2019-02-02T06:48:13.029Z,52.50
2019-02-02T06:50:41.743Z,52.23
2019-02-02T06:53:10.607Z,51.60
2019-02-02T06:55:39.479Z,53.50
2019-02-02T06:58:07.945Z,54.47
2019-02-02T07:00:36.596Z,54.77
2019-02-02T07:03:05.030Z,53.53
2019-02-02T07:05:34.046Z,52.37
2019-02-02T07:08:02.505Z,53.30
2019-02-02T07:10:31.203Z,53.50
2019-02-02T07:12:59.571Z,50.23
2019-02-02T07:15:28.478Z,55.17
2019-02-02T07:17:57.163Z,56.17
2019-02-02T07:20:25.778Z,55.53
2019-02-02T07:22:54.220Z,59.13
2019-02-02T07:25:22.659Z,58.47
2019-02-02T07:27:51.011Z,59.13
2019-02-02T07:30:28.028Z,63.03
2019-02-02T07:32:50.215Z,64.07
2019-02-02T07:35:18.669Z,64.40
2019-02-02T07:37:53.466Z,61.80
2019-02-02T07:40:22.077Z,58.97
2019-02-02T07:42:50.711Z,56.80
2019-02-02T07:45:20.123Z,58.23
2019-02-02T07:47:48.631Z,59.50
2019-02-02T07:50:17.064Z,63.03
2019-02-02T07:52:45.521Z,57.67
2019-02-02T07:55:14.857Z,57.67
2019-02-02T07:57:43.419Z,57.93
2019-02-02T08:00:15.877Z,57.30
2019-02-02T08:02:44.289Z,61.77
2019-02-02T08:05:12.803Z,57.90
2019-02-02T08:07:41.247Z,57.23
2019-02-02T08:10:10.183Z,57.97
2019-02-02T08:12:38.743Z,57.67
2019-02-02T08:15:08.468Z,57.10
2019-02-02T08:17:36.878Z,59.17
2019-02-02T08:20:05.753Z,60.70
2019-02-02T08:22:34.543Z,56.93
2019-02-02T08:25:03.175Z,57.83
2019-02-02T08:27:31.647Z,55.47
2019-02-02T08:30:00.355Z,59.13
2019-02-02T08:32:28.795Z,58.40
2019-02-02T08:34:57.219Z,55.60
2019-02-02T08:37:27.733Z,55.47
2019-02-02T08:39:56.219Z,57.07
2019-02-02T08:42:24.760Z,54.57
2019-02-02T08:44:53.360Z,53.20
2019-02-02T08:47:21.707Z,55.17
2019-02-02T08:49:50.161Z,51.43
2019-02-02T08:52:18.763Z,55.03
2019-02-02T08:54:47.501Z,54.03
2019-02-02T08:57:15.954Z,53.53
2019-02-02T08:59:44.299Z,54.27
2019-02-02T09:02:12.831Z,50.87
2019-02-02T09:04:41.615Z,52.97
2019-02-02T09:07:11.317Z,56.50
2019-02-02T09:09:39.747Z,54.80
2019-02-02T09:12:08.271Z,55.13
2019-02-02T09:14:37.335Z,50.70
2019-02-02T09:17:05.829Z,53.23
2019-02-02T09:19:34.651Z,50.47
2019-02-02T09:22:03.616Z,55.43
2019-02-02T09:24:32.225Z,55.63
2019-02-02T09:27:00.687Z,53.97
2019-02-02T09:29:29.768Z,51.83
2019-02-02T09:31:58.155Z,53.73
2019-02-02T09:34:28.871Z,57.40
2019-02-02T09:36:57.636Z,54.97
2019-02-02T09:39:26.427Z,52.97
2019-02-02T09:41:54.768Z,50.83
2019-02-02T09:44:23.099Z,52.60
2019-02-02T09:46:53.867Z,51.13
2019-02-02T09:49:23.234Z,49.40
2019-02-02T09:51:54.777Z,51.07
2019-02-02T09:54:26.651Z,52.13
2019-02-02T09:56:55.421Z,47.93
2019-02-02T09:59:24.110Z,51.77
2019-02-02T10:01:54.946Z,49.50
2019-02-02T10:04:23.406Z,52.40
2019-02-02T10:06:51.911Z,49.43
2019-02-02T10:09:20.431Z,49.93
2019-02-02T10:11:49.529Z,50.43
2019-02-02T10:14:18.077Z,53.50
2019-02-02T10:16:46.507Z,52.30
2019-02-02T10:19:15.291Z,52.80
2019-02-02T10:21:44.567Z,54.53
2019-02-02T10:24:13.070Z,50.77
2019-02-02T10:26:44.521Z,53.63
2019-02-02T10:29:13.393Z,53.97
2019-02-02T10:31:41.882Z,53.63
2019-02-02T10:34:12.312Z,49.97
2019-02-02T10:36:40.678Z,51.40
2019-02-02T10:39:09.695Z,51.57
2019-02-02T10:41:38.209Z,54.93
2019-02-02T10:44:06.613Z,50.50
2019-02-02T10:46:38.908Z,51.00
2019-02-02T10:49:07.629Z,52.93
2019-02-02T10:51:36.221Z,54.03
2019-02-02T10:54:05.673Z,56.97
2019-02-02T10:56:34.235Z,55.17
2019-02-02T10:59:02.629Z,53.80
2019-02-02T11:01:32.084Z,53.10
2019-02-02T11:04:01.224Z,52.70
2019-02-02T11:06:29.714Z,54.67
2019-02-02T11:08:58.207Z,53.23
2019-02-02T11:11:27.095Z,54.17
2019-02-02T11:13:55.683Z,52.80
2019-02-02T11:16:24.757Z,51.87
2019-02-02T11:18:53.270Z,53.23
2019-02-02T11:21:21.996Z,54.87
2019-02-02T11:23:50.605Z,52.97
2019-02-02T11:26:20.025Z,55.63
2019-02-02T11:28:48.604Z,51.63
2019-02-02T11:31:17.200Z,55.87
2019-02-02T11:33:46.142Z,61.47
2019-02-02T11:36:14.596Z,57.87
2019-02-02T11:38:42.899Z,56.03
2019-02-02T11:41:11.668Z,58.17
2019-02-02T11:43:40.442Z,54.43
2019-02-02T11:46:08.950Z,59.27
2019-02-02T11:48:37.383Z,59.47
2019-02-02T11:51:05.763Z,60.13
2019-02-02T11:53:37.248Z,63.53
2019-02-02T11:56:04.623Z,58.37
2019-02-02T11:58:33.048Z,61.23
2019-02-02T12:01:01.493Z,60.80
2019-02-02T12:03:30.175Z,65.03
2019-02-02T12:05:58.617Z,67.27
2019-02-02T12:08:26.976Z,66.33
2019-02-02T12:10:55.405Z,67.07
2019-02-02T12:13:23.915Z,65.97
2019-02-02T12:15:52.383Z,64.23
2019-02-02T12:18:20.811Z,66.10
2019-02-02T12:20:49.215Z,64.43
2019-02-02T12:23:17.705Z,69.27
2019-02-02T12:25:47.443Z,71.40
2019-02-02T12:28:15.793Z,66.53
2019-02-02T12:30:44.223Z,64.37
2019-02-02T12:33:12.868Z,64.77
2019-02-02T12:35:41.466Z,65.67
2019-02-02T12:38:09.895Z,67.33
2019-02-02T12:40:38.329Z,69.53
2019-02-02T12:43:06.763Z,68.30
2019-02-02T12:45:42.829Z,75.60
2019-02-02T12:48:11.356Z,71.87
2019-02-02T12:50:39.999Z,70.40
2019-02-02T12:53:08.747Z,77.53
2019-02-02T12:55:37.184Z,73.70
2019-02-02T12:58:05.784Z,74.03
2019-02-02T13:00:34.689Z,68.03
2019-02-02T13:03:03.203Z,75.77
2019-02-02T13:05:31.737Z,73.87
2019-02-02T13:08:00.240Z,74.87
2019-02-02T13:10:29.839Z,75.67
2019-02-02T13:13:04.419Z,72.07
2019-02-02T13:15:38.323Z,71.20
2019-02-02T13:18:29.936Z,71.57
2019-02-02T13:20:58.251Z,76.83
2019-02-02T13:23:26.899Z,77.20
2019-02-02T13:26:07.442Z,76.67
2019-02-02T13:28:37.942Z,75.90
2019-02-02T13:31:08.543Z,80.47
2019-02-02T13:33:37.932Z,72.67
2019-02-02T13:36:06.527Z,78.50
2019-02-02T13:38:34.994Z,79.43
2019-02-02T13:41:03.387Z,77.10
2019-02-02T13:43:32.101Z,81.37
2019-02-02T13:46:02.067Z,80.63
2019-02-02T13:48:30.627Z,82.00
2019-02-02T13:50:59.100Z,81.37
2019-02-02T13:53:27.580Z,84.80
2019-02-02T13:55:56.045Z,85.23
2019-02-02T13:58:24.523Z,82.03
2019-02-02T14:01:12.281Z,85.77
2019-02-02T14:03:59.894Z,78.17
2019-02-02T14:06:47.615Z,76.13
2019-02-02T14:09:35.176Z,78.40
2019-02-02T14:12:22.765Z,83.53
2019-02-02T14:15:10.332Z,83.07
2019-02-02T14:17:58.172Z,87.10
2019-02-02T14:21:05.330Z,84.93
2019-02-02T14:23:53.035Z,80.90
2019-02-02T19:27:15.377Z,100.53
2019-02-02T19:29:55.951Z,96.20
2019-02-02T19:32:35.932Z,127.07
2019-02-02T19:35:16.682Z,108.87
2019-02-02T19:37:56.750Z,99.67
2019-02-02T19:40:35.913Z,101.57
2019-02-02T22:04:33.804Z,81.73
2019-02-02T22:07:14.124Z,80.37
2019-02-02T22:09:54.504Z,82.10
2019-02-02T22:12:34.829Z,77.00
2019-02-02T22:15:17.326Z,78.07
2019-02-02T22:17:55.366Z,85.47
2019-02-02T22:32:23.515Z,84.43
2019-02-02T22:35:11.106Z,82.80
2019-02-02T22:37:58.716Z,81.90
2019-02-02T22:40:46.343Z,83.97
2019-02-02T22:43:33.900Z,82.00
2019-02-02T22:46:21.489Z,83.90
2019-02-02T22:49:09.124Z,84.10
2019-02-02T22:51:59.928Z,84.73
2019-02-02T22:54:46.676Z,86.27
2019-02-02T22:57:35.867Z,82.27
2019-02-02T23:03:31.892Z,83.37
2019-02-02T23:06:19.475Z,83.80
2019-02-02T23:09:07.068Z,80.83
2019-02-02T23:11:54.659Z,84.97
2019-02-02T23:17:38.310Z,78.67
2019-02-02T23:20:07.105Z,84.87
2019-02-02T23:22:54.704Z,84.17
2019-02-02T23:25:42.363Z,81.30
2019-02-02T23:28:29.956Z,81.77
2019-02-02T23:30:58.477Z,78.30
2019-02-02T23:57:35.486Z,83.70
